createdAt,value
2019-03-03T00:00:43.130Z,78.50
2019-03-03T00:02:19.644Z,88.20
2019-03-03T00:03:57.482Z,85.87
2019-03-03T00:05:34.197Z,80.77
2019-03-03T00:07:10.635Z,79.62
2019-03-03T00:08:47.029Z,81.37
2019-03-03T00:10:23.242Z,77.65
2019-03-03T00:11:59.315Z,75.95
2019-03-03T00:13:35.587Z,81.75
2019-03-03T00:15:13.306Z,80.62
2019-03-03T00:16:49.783Z,78.55
2019-03-03T00:18:26.175Z,81.12
2019-03-03T00:20:02.355Z,88.27
2019-03-03T00:21:38.767Z,85.00
2019-03-03T00:23:15.629Z,81.72
2019-03-03T00:24:51.832Z,81.17
2019-03-03T00:26:28.266Z,77.67
2019-03-03T00:28:04.561Z,79.50
2019-03-03T00:29:40.653Z,79.92
2019-03-03T00:31:19.664Z,76.80
2019-03-03T00:32:55.801Z,74.32
2019-03-03T00:34:32.105Z,75.97
2019-03-03T00:36:08.468Z,74.72
2019-03-03T00:37:50.475Z,78.70
2019-03-03T00:39:41.526Z,77.05
2019-03-03T00:41:22.594Z,78.25
2019-03-03T00:43:10.664Z,78.85
2019-03-03T00:44:48.490Z,77.10
2019-03-03T00:46:42.667Z,75.42
2019-03-03T00:48:29.197Z,75.72
2019-03-03T00:50:18.273Z,73.80
2019-03-03T00:52:09.293Z,72.25
2019-03-03T00:53:51.590Z,70.35
2019-03-03T00:55:44.553Z,66.62
2019-03-03T00:57:22.617Z,68.17
2019-03-03T00:59:06.716Z,67.22
2019-03-03T01:00:44.705Z,66.22
2019-03-03T01:02:22.615Z,70.42
2019-03-03T01:04:00.572Z,71.80
2019-03-03T01:05:55.836Z,70.05
2019-03-03T01:07:34.484Z,61.83
2019-03-03T01:09:43.231Z,68.05
2019-03-03T01:11:33.107Z,71.95
2019-03-03T01:13:16.868Z,66.42
2019-03-03T01:15:10.898Z,67.05
2019-03-03T01:16:46.894Z,63.58
2019-03-03T01:18:30.318Z,65.08
2019-03-03T01:20:17.265Z,63.78
2019-03-03T01:21:54.985Z,64.67
2019-03-03T01:23:35.705Z,64.47
2019-03-03T01:25:11.932Z,65.80
2019-03-03T01:26:48.092Z,66.07
2019-03-03T01:28:24.345Z,56.85
2019-03-03T01:30:00.504Z,63.02
2019-03-03T01:31:36.622Z,55.85
2019-03-03T01:33:12.675Z,62.80
2019-03-03T01:34:48.758Z,67.50
2019-03-03T01:36:24.846Z,63.08
2019-03-03T01:38:00.833Z,64.00
2019-03-03T01:39:36.925Z,62.85
2019-03-03T01:41:13.015Z,62.58
2019-03-03T01:42:49.169Z,58.78
2019-03-03T01:44:25.176Z,61.60
2019-03-03T01:46:01.133Z,66.00
2019-03-03T01:47:37.218Z,63.00
2019-03-03T01:49:13.341Z,64.20
2019-03-03T01:50:49.651Z,60.27
2019-03-03T01:52:28.289Z,58.75
2019-03-03T01:54:04.638Z,60.78
2019-03-03T01:55:40.770Z,61.05
2019-03-03T01:57:16.952Z,67.12
2019-03-03T01:58:52.986Z,64.00
2019-03-03T02:00:29.771Z,61.65
2019-03-03T02:02:06.201Z,58.50
2019-03-03T02:03:42.296Z,66.20
2019-03-03T02:05:19.243Z,61.83
2019-03-03T02:06:55.898Z,63.85
2019-03-03T02:08:31.981Z,63.63
2019-03-03T02:10:10.448Z,63.92
2019-03-03T02:11:46.674Z,60.95
2019-03-03T02:13:22.740Z,62.30
2019-03-03T02:14:58.832Z,64.92
2019-03-03T02:16:34.959Z,61.42
2019-03-03T02:18:11.079Z,64.37
2019-03-03T02:19:47.238Z,67.03
2019-03-03T02:21:23.610Z,65.63
2019-03-03T02:22:59.883Z,60.15
2019-03-03T02:24:36.033Z,64.67
2019-03-03T02:26:12.283Z,65.90
2019-03-03T02:27:48.500Z,67.78
2019-03-03T02:29:24.571Z,64.03
2019-03-03T02:31:00.700Z,65.70
2019-03-03T02:32:36.821Z,66.42
2019-03-03T02:34:13.001Z,66.22
2019-03-03T02:35:49.222Z,64.12
2019-03-03T02:37:25.403Z,64.50
2019-03-03T02:39:01.548Z,64.60
2019-03-03T02:40:37.640Z,62.98
2019-03-03T02:42:13.894Z,62.15
2019-03-03T02:43:50.155Z,60.20
2019-03-03T02:45:26.238Z,59.48
2019-03-03T02:47:02.460Z,60.98
2019-03-03T02:48:38.614Z,59.53
2019-03-03T02:50:16.744Z,62.03
2019-03-03T02:51:52.829Z,57.83
2019-03-03T02:53:28.745Z,55.30
2019-03-03T02:55:07.009Z,57.53
2019-03-03T02:56:43.191Z,55.13
2019-03-03T02:58:19.199Z,57.27
2019-03-03T02:59:56.561Z,57.65
2019-03-03T03:01:37.278Z,53.03
2019-03-03T03:03:14.461Z,51.00
2019-03-03T03:04:50.619Z,58.50
2019-03-03T03:06:40.569Z,57.40
2019-03-03T03:08:18.265Z,54.18
2019-03-03T03:10:04.982Z,59.20
2019-03-03T03:11:52.105Z,57.43
2019-03-03T03:13:35.789Z,54.85
2019-03-03T03:15:13.581Z,57.88
2019-03-03T03:16:57.071Z,58.33
2019-03-03T03:18:38.698Z,55.98
2019-03-03T03:20:16.408Z,54.75
2019-03-03T03:21:57.068Z,57.43
2019-03-03T03:23:48.201Z,57.73
2019-03-03T03:25:26.002Z,58.17
2019-03-03T03:27:03.829Z,60.70
2019-03-03T03:28:56.774Z,52.98
2019-03-03T03:30:34.560Z,59.83
2019-03-03T03:32:15.823Z,57.03
2019-03-03T03:33:59.595Z,55.90
2019-03-03T03:35:39.895Z,55.17
2019-03-03T03:37:30.466Z,54.67
2019-03-03T03:39:09.338Z,57.10
2019-03-03T03:40:52.593Z,55.03
2019-03-03T03:42:48.874Z,56.30
2019-03-03T03:44:26.666Z,54.57
2019-03-03T03:46:20.389Z,54.50
2019-03-03T03:48:07.172Z,53.33
2019-03-03T03:49:45.034Z,55.73
2019-03-03T03:51:29.080Z,52.00
2019-03-03T03:53:14.073Z,53.33
2019-03-03T03:55:07.881Z,57.00
2019-03-03T03:56:54.468Z,52.50
2019-03-03T03:58:39.528Z,55.53
2019-03-03T04:00:17.386Z,55.30
2019-03-03T04:01:55.361Z,53.08
2019-03-03T04:03:49.157Z,52.05
2019-03-03T04:05:35.998Z,52.10
2019-03-03T04:07:20.090Z,54.80
2019-03-03T04:09:09.811Z,53.87
2019-03-03T04:11:03.598Z,53.58
2019-03-03T04:12:41.385Z,53.42
2019-03-03T04:14:22.011Z,55.43
2019-03-03T04:16:05.478Z,55.85
2019-03-03T04:17:43.094Z,56.53
2019-03-03T04:19:23.689Z,56.30
2019-03-03T04:21:19.339Z,54.67
2019-03-03T04:23:02.608Z,56.40
2019-03-03T04:24:49.304Z,56.47
2019-03-03T04:26:43.259Z,55.50
2019-03-03T04:28:20.849Z,57.05
2019-03-03T04:30:01.121Z,55.85
2019-03-03T04:31:41.580Z,59.60
2019-03-03T04:33:24.918Z,57.67
2019-03-03T04:35:05.305Z,57.43
2019-03-03T04:36:47.267Z,58.80
2019-03-03T04:38:24.952Z,59.87
2019-03-03T04:40:08.698Z,58.03
2019-03-03T04:41:46.435Z,59.33
2019-03-03T04:43:24.065Z,60.55
2019-03-03T04:45:11.102Z,59.42
2019-03-03T04:46:48.818Z,59.57
2019-03-03T04:48:29.201Z,60.20
2019-03-03T04:50:21.772Z,63.00
2019-03-03T04:52:00.670Z,60.60
2019-03-03T04:53:38.309Z,62.53
2019-03-03T04:55:32.283Z,64.27
2019-03-03T04:57:26.097Z,61.73
2019-03-03T04:59:03.818Z,63.57
2019-03-03T05:00:41.703Z,65.27
2019-03-03T05:02:19.393Z,69.13
2019-03-03T05:04:09.501Z,69.10
2019-03-03T05:05:54.753Z,62.83
2019-03-03T05:07:32.481Z,61.37
2019-03-03T05:09:18.930Z,62.37
2019-03-03T05:11:12.872Z,68.30
2019-03-03T05:12:59.372Z,69.43
2019-03-03T05:14:37.022Z,67.43
2019-03-03T05:16:16.097Z,68.53
2019-03-03T05:17:56.771Z,62.70
2019-03-03T05:19:32.881Z,68.63
2019-03-03T05:21:08.849Z,75.40
2019-03-03T05:22:44.933Z,69.00
2019-03-03T05:24:20.910Z,76.10
2019-03-03T05:25:56.962Z,71.60
2019-03-03T05:27:32.965Z,74.53
2019-03-03T05:29:08.872Z,75.87
2019-03-03T05:30:45.140Z,74.10
2019-03-03T05:32:21.307Z,77.17
2019-03-03T05:33:57.407Z,76.73
2019-03-03T05:35:33.621Z,74.90
2019-03-03T05:37:09.623Z,82.47
2019-03-03T05:38:45.645Z,92.93
2019-03-03T05:40:21.631Z,109.67
2019-03-03T05:41:57.724Z,88.50
2019-03-03T05:43:33.973Z,102.33
2019-03-03T05:45:10.127Z,87.30
2019-03-03T05:46:48.431Z,80.60
2019-03-03T05:48:24.146Z,78.33
2019-03-03T05:50:00.293Z,74.70
2019-03-03T05:51:36.462Z,77.23
2019-03-03T05:53:12.545Z,78.40
2019-03-03T05:54:48.620Z,78.90
2019-03-03T05:56:24.728Z,78.83
2019-03-03T05:58:00.877Z,79.80
2019-03-03T05:59:36.963Z,88.07
2019-03-03T06:01:13.104Z,95.90
2019-03-03T06:02:49.343Z,98.97
2019-03-03T06:04:25.409Z,98.47
2019-03-03T06:06:01.464Z,100.10
2019-03-03T06:07:37.433Z,99.17
2019-03-03T06:09:14.739Z,92.93
2019-03-03T06:10:50.728Z,93.63
2019-03-03T06:12:26.690Z,92.53
2019-03-03T06:14:02.944Z,97.63
2019-03-03T06:15:39.080Z,100.57
2019-03-03T06:17:15.161Z,95.40
2019-03-03T06:18:51.317Z,96.40
2019-03-03T06:20:27.934Z,92.60
2019-03-03T06:22:04.369Z,91.50
2019-03-03T06:23:40.547Z,98.77
2019-03-03T06:25:16.576Z,106.00
2019-03-03T06:26:52.635Z,105.50
2019-03-03T06:28:28.769Z,98.07
2019-03-03T06:30:16.098Z,99.77
2019-03-03T06:31:52.169Z,101.93
2019-03-03T06:33:28.285Z,96.60
2019-03-03T06:35:06.767Z,95.27
2019-03-03T06:36:42.893Z,99.90
2019-03-03T06:38:18.967Z,99.57
2019-03-03T06:39:55.138Z,96.07
2019-03-03T06:41:31.183Z,95.97
2019-03-03T06:43:07.356Z,92.00
2019-03-03T06:44:43.343Z,93.43
2019-03-03T06:46:19.315Z,92.93
2019-03-03T06:47:55.397Z,86.33
2019-03-03T06:49:31.297Z,93.97
2019-03-03T06:51:07.332Z,89.27
2019-03-03T06:52:43.645Z,94.00
2019-03-03T06:54:19.714Z,92.03
2019-03-03T06:55:55.961Z,92.57
2019-03-03T06:57:31.949Z,96.03
2019-03-03T06:59:07.934Z,91.97
2019-03-03T07:00:44.101Z,88.07
2019-03-03T07:02:20.070Z,91.00
2019-03-03T07:03:56.163Z,92.87
2019-03-03T07:05:32.209Z,84.77
2019-03-03T07:07:08.267Z,90.03
2019-03-03T07:08:44.174Z,97.17
2019-03-03T07:10:20.209Z,90.83
2019-03-03T07:11:56.379Z,93.93
2019-03-03T07:13:32.419Z,91.43
2019-03-03T07:15:17.202Z,89.67
2019-03-03T07:16:53.419Z,95.87
2019-03-03T07:18:29.510Z,95.70
2019-03-03T07:20:09.269Z,90.27
2019-03-03T07:21:45.302Z,90.30
2019-03-03T07:23:21.410Z,95.57
2019-03-03T07:24:57.307Z,98.23
2019-03-03T07:26:33.350Z,99.83
2019-03-03T07:28:09.433Z,105.67
2019-03-03T07:29:45.455Z,104.43
2019-03-03T07:31:21.529Z,102.40
2019-03-03T07:33:03.225Z,115.77
2019-03-03T07:34:39.320Z,117.03
2019-03-03T07:36:15.326Z,122.77
2019-03-03T07:37:51.391Z,121.40
2019-03-03T07:39:27.357Z,110.37
2019-03-03T07:41:03.667Z,101.80
2019-03-03T07:42:39.725Z,106.40
2019-03-03T07:44:15.864Z,101.63
2019-03-03T07:45:51.976Z,96.43
2019-03-03T07:47:28.064Z,100.37
2019-03-03T07:49:04.158Z,99.40
2019-03-03T07:50:40.230Z,101.43
2019-03-03T07:52:16.472Z,103.00
2019-03-03T07:53:52.611Z,92.37
2019-03-03T07:55:28.728Z,102.07
2019-03-03T07:57:04.937Z,93.73
2019-03-03T07:58:41.008Z,91.90
2019-03-03T08:00:18.691Z,90.63
2019-03-03T08:01:54.933Z,85.53
2019-03-03T08:03:30.935Z,63.40
2019-03-03T08:05:09.747Z,59.77
2019-03-03T08:06:45.769Z,54.20
2019-03-03T08:08:21.850Z,47.23
2019-03-03T08:09:58.505Z,49.60
2019-03-03T08:11:34.784Z,49.27
2019-03-03T08:13:10.847Z,46.23
2019-03-03T08:14:46.914Z,47.10
2019-03-03T08:16:22.827Z,45.30
2019-03-03T08:17:59.013Z,45.13
2019-03-03T08:19:34.980Z,45.63
2019-03-03T08:21:10.968Z,41.60
2019-03-03T08:22:47.227Z,40.23
2019-03-03T08:24:23.142Z,44.00
2019-03-03T08:25:59.203Z,47.10
2019-03-03T08:27:35.358Z,39.33
2019-03-03T08:29:11.351Z,41.23
2019-03-03T08:30:47.233Z,38.77
2019-03-03T08:32:23.210Z,37.90
2019-03-03T08:33:59.339Z,39.07
2019-03-03T08:35:35.580Z,37.33
2019-03-03T08:37:11.822Z,37.87
2019-03-03T08:38:48.280Z,37.77
2019-03-03T08:40:24.486Z,40.03
2019-03-03T08:42:04.989Z,37.90
2019-03-03T08:43:42.533Z,37.63
2019-03-03T08:45:38.210Z,38.70
2019-03-03T08:47:31.066Z,37.80
2019-03-03T08:49:11.288Z,36.73
2019-03-03T08:50:53.688Z,38.40
2019-03-03T08:52:31.323Z,38.67
2019-03-03T08:54:25.147Z,35.00
2019-03-03T08:56:06.513Z,38.17
2019-03-03T08:57:50.085Z,39.23
2019-03-03T08:59:44.191Z,36.40
2019-03-03T09:01:30.543Z,35.90
2019-03-03T09:03:19.925Z,36.93
2019-03-03T09:04:57.792Z,38.47
2019-03-03T09:06:42.905Z,37.00
2019-03-03T09:08:23.654Z,35.40
2019-03-03T09:10:07.218Z,36.43
2019-03-03T09:11:52.007Z,36.03
2019-03-03T09:13:41.875Z,36.73
2019-03-03T09:15:19.645Z,36.60
2019-03-03T09:17:02.991Z,33.83
2019-03-03T09:18:46.631Z,33.77
2019-03-03T09:20:24.434Z,33.77
2019-03-03T09:22:04.682Z,34.77
2019-03-03T09:23:43.315Z,32.07
2019-03-03T09:25:37.482Z,31.27
2019-03-03T09:27:15.303Z,32.83
2019-03-03T09:28:53.070Z,31.03
2019-03-03T09:30:30.783Z,32.20
2019-03-03T09:32:26.662Z,32.27
2019-03-03T09:34:10.402Z,30.30
2019-03-03T09:35:54.216Z,34.03
2019-03-03T09:37:34.615Z,36.03
2019-03-03T09:39:12.385Z,35.87
2019-03-03T09:40:50.160Z,36.83
2019-03-03T09:42:31.946Z,32.47
2019-03-03T09:44:13.586Z,33.70
2019-03-03T09:45:51.185Z,31.57
2019-03-03T09:47:43.986Z,31.23
2019-03-03T09:49:24.454Z,49.23
2019-03-03T09:51:10.993Z,56.20
2019-03-03T09:52:51.537Z,41.83
2019-03-03T09:54:44.936Z,32.00
2019-03-03T09:56:38.848Z,29.63
2019-03-03T09:58:17.593Z,30.23
2019-03-03T09:59:55.300Z,31.53
2019-03-03T10:01:49.378Z,31.93
2019-03-03T10:03:29.775Z,29.63
2019-03-03T10:05:27.573Z,30.33
2019-03-03T10:07:13.631Z,31.27
2019-03-03T10:09:09.327Z,31.23
2019-03-03T10:10:55.954Z,30.13
2019-03-03T10:12:33.725Z,30.63
2019-03-03T10:14:11.606Z,31.30
2019-03-03T10:15:49.310Z,32.47
2019-03-03T10:17:43.117Z,34.47
2019-03-03T10:19:23.494Z,43.00
2019-03-03T10:21:13.159Z,37.13
2019-03-03T10:22:50.932Z,32.50
2019-03-03T10:24:37.226Z,32.50
2019-03-03T10:26:24.206Z,33.27
2019-03-03T10:28:08.798Z,32.77
2019-03-03T10:29:47.806Z,34.23
2019-03-03T10:31:28.455Z,34.50
2019-03-03T10:33:08.866Z,33.83
2019-03-03T10:35:02.862Z,30.23
2019-03-03T10:36:38.627Z,34.53
2019-03-03T10:38:16.439Z,30.83
2019-03-03T10:40:10.494Z,32.30
2019-03-03T10:42:04.431Z,32.37
2019-03-03T10:43:43.057Z,30.37
2019-03-03T10:45:20.938Z,33.83
2019-03-03T10:47:06.259Z,34.90
2019-03-03T10:48:44.120Z,33.90
2019-03-03T10:50:24.781Z,34.23
2019-03-03T10:52:02.628Z,34.10
2019-03-03T10:53:56.095Z,37.13
2019-03-03T10:55:32.073Z,43.17
2019-03-03T10:57:17.226Z,37.40
2019-03-03T10:58:59.497Z,37.87
2019-03-03T11:00:37.340Z,39.13
2019-03-03T11:02:32.351Z,34.20
2019-03-03T11:04:30.513Z,40.60
2019-03-03T11:06:39.231Z,39.80
2019-03-03T11:08:41.795Z,38.53
2019-03-03T11:10:37.688Z,33.53
2019-03-03T11:12:48.264Z,40.37
2019-03-03T11:14:43.409Z,34.63
2019-03-03T11:16:41.400Z,34.50
2019-03-03T11:18:37.104Z,35.27
2019-03-03T11:20:32.195Z,34.77
2019-03-03T11:22:37.512Z,32.90
2019-03-03T11:24:47.878Z,32.67
2019-03-03T11:26:59.174Z,35.52
2019-03-03T11:28:52.752Z,31.60
2019-03-03T11:30:47.598Z,30.07
2019-03-03T11:32:48.902Z,27.80
2019-03-03T11:35:00.640Z,26.67
2019-03-03T11:36:56.035Z,25.73
2019-03-03T11:38:55.537Z,26.13
2019-03-03T11:40:57.155Z,27.07
2019-03-03T11:43:06.781Z,26.40
2019-03-03T11:45:14.186Z,25.47
2019-03-03T11:47:24.173Z,26.60
2019-03-03T11:49:25.131Z,27.20
2019-03-03T11:51:36.784Z,26.83
2019-03-03T11:53:48.162Z,28.67
2019-03-03T11:56:00.138Z,26.90
2019-03-03T11:57:58.376Z,26.30
2019-03-03T12:00:00.677Z,25.03
2019-03-03T12:01:54.104Z,24.97
2019-03-03T12:04:01.283Z,27.97
2019-03-03T12:05:56.391Z,25.50
2019-03-03T12:07:49.844Z,28.33
2019-03-03T12:10:01.796Z,26.20
2019-03-03T12:11:59.945Z,26.33
2019-03-03T12:13:55.244Z,26.13
2019-03-03T12:15:51.839Z,26.57
2019-03-03T12:18:05.098Z,33.10
2019-03-03T12:20:00.362Z,37.83
2019-03-03T12:21:55.258Z,32.20
2019-03-03T12:23:50.358Z,36.03
2019-03-03T12:25:54.814Z,33.73
2019-03-03T12:27:58.044Z,31.53
2019-03-03T12:29:53.307Z,33.90
2019-03-03T12:31:57.278Z,28.07
2019-03-03T12:34:01.443Z,29.47
2019-03-03T12:36:11.507Z,28.83
2019-03-03T12:38:07.155Z,28.77
2019-03-03T12:40:14.786Z,30.30
2019-03-03T12:42:26.222Z,27.57
2019-03-03T12:44:23.818Z,26.93
2019-03-03T12:46:24.843Z,32.30
2019-03-03T12:48:18.383Z,34.10
2019-03-03T12:50:14.937Z,32.70
2019-03-03T12:52:09.995Z,30.43
2019-03-03T12:54:08.149Z,30.50
2019-03-03T12:56:19.213Z,27.47
2019-03-03T12:58:06.596Z,31.50
2019-03-03T12:59:44.303Z,30.63
2019-03-03T13:01:38.375Z,32.97
2019-03-03T13:03:32.402Z,36.77
2019-03-03T13:05:19.412Z,33.07
2019-03-03T13:06:57.139Z,34.43
2019-03-03T13:08:35.014Z,30.73
2019-03-03T13:10:20.538Z,28.40
2019-03-03T13:12:04.209Z,29.17
2019-03-03T13:13:44.600Z,29.60
2019-03-03T13:15:25.006Z,30.80
2019-03-03T13:17:21.226Z,27.97
2019-03-03T13:19:04.404Z,28.77
2019-03-03T13:20:42.129Z,36.80
2019-03-03T13:22:22.775Z,57.03
2019-03-03T13:24:00.569Z,41.83
2019-03-03T13:25:53.323Z,42.07
2019-03-03T13:27:31.173Z,27.67
2019-03-03T13:29:24.844Z,27.70
2019-03-03T13:31:05.523Z,27.93
2019-03-03T13:32:46.115Z,23.80
2019-03-03T13:34:24.840Z,24.90
2019-03-03T13:36:00.728Z,24.10
2019-03-03T13:37:47.318Z,26.57
2019-03-03T13:39:25.069Z,27.27
2019-03-03T13:41:03.616Z,28.30
2019-03-03T13:42:44.151Z,26.37
2019-03-03T13:44:20.051Z,26.40
2019-03-03T13:45:56.253Z,27.47
2019-03-03T13:47:32.586Z,26.37
2019-03-03T13:49:08.798Z,23.93
2019-03-03T13:50:45.081Z,24.37
2019-03-03T13:52:21.553Z,24.10
2019-03-03T13:53:57.655Z,24.30
2019-03-03T13:55:33.955Z,23.07
2019-03-03T13:57:10.265Z,25.90
2019-03-03T13:58:46.476Z,25.90
2019-03-03T14:00:24.263Z,25.70
2019-03-03T14:02:00.439Z,25.30
2019-03-03T14:03:36.978Z,26.70
2019-03-03T14:05:13.412Z,26.03
2019-03-03T14:06:49.649Z,25.63
2019-03-03T14:08:25.879Z,27.27
2019-03-03T14:10:02.081Z,28.87
2019-03-03T14:11:38.136Z,26.17
2019-03-03T14:13:14.220Z,27.37
2019-03-03T14:14:50.403Z,24.17
2019-03-03T14:16:26.645Z,22.33
2019-03-03T14:18:02.816Z,21.77
2019-03-03T14:19:38.956Z,24.90
2019-03-03T14:21:15.087Z,27.57
2019-03-03T14:22:53.298Z,28.40
2019-03-03T14:24:29.489Z,29.17
2019-03-03T14:26:05.688Z,23.53
2019-03-03T14:27:41.842Z,24.03
2019-03-03T14:29:18.177Z,22.07
2019-03-03T14:30:56.038Z,22.70
2019-03-03T14:32:33.546Z,18.60
2019-03-03T14:34:11.326Z,20.00
2019-03-03T14:35:47.431Z,20.37
2019-03-03T14:37:23.570Z,22.63
2019-03-03T14:38:59.679Z,23.20
2019-03-03T14:40:35.765Z,28.30
2019-03-03T14:42:11.893Z,40.33
2019-03-03T14:43:49.249Z,26.40
2019-03-03T14:45:25.621Z,43.03
2019-03-03T14:47:01.826Z,50.70
2019-03-03T14:48:38.014Z,68.83
2019-03-03T14:50:19.595Z,75.77
2019-03-03T14:51:55.700Z,38.73
2019-03-03T14:53:31.587Z,38.30
2019-03-03T14:55:17.539Z,35.70
2019-03-03T14:56:53.655Z,33.67
2019-03-03T14:58:30.181Z,30.37
2019-03-03T15:00:29.182Z,32.23
2019-03-03T15:02:05.485Z,27.13
2019-03-03T15:03:41.613Z,30.77
2019-03-03T15:05:17.854Z,29.67
2019-03-03T15:06:53.963Z,27.70
2019-03-03T15:08:30.090Z,29.80
2019-03-03T15:10:12.122Z,27.77
2019-03-03T15:11:48.488Z,27.47
2019-03-03T15:13:24.698Z,24.87
2019-03-03T15:15:00.978Z,26.10
2019-03-03T15:16:37.166Z,27.13
2019-03-03T15:18:13.462Z,34.57
2019-03-03T15:19:49.657Z,29.07
2019-03-03T15:21:25.742Z,30.07
2019-03-03T15:23:01.951Z,30.63
2019-03-03T15:24:38.008Z,30.43
2019-03-03T15:26:14.104Z,27.67
2019-03-03T15:27:50.410Z,28.23
2019-03-03T15:29:26.460Z,27.40
2019-03-03T15:31:02.668Z,28.07
2019-03-03T15:32:38.697Z,26.27
2019-03-03T15:34:14.859Z,25.67
2019-03-03T15:35:51.416Z,30.93
2019-03-03T15:37:27.620Z,31.33
2019-03-03T15:39:05.459Z,29.10
2019-03-03T15:40:43.039Z,26.50
2019-03-03T15:42:20.153Z,27.33
2019-03-03T15:43:56.295Z,28.83
2019-03-03T15:45:32.410Z,32.27
2019-03-03T15:47:08.444Z,34.80
2019-03-03T15:48:44.643Z,33.60
2019-03-03T15:50:22.549Z,37.43
2019-03-03T15:51:58.681Z,39.67
2019-03-03T15:53:34.905Z,31.13
2019-03-03T15:55:14.403Z,33.47
2019-03-03T15:56:50.597Z,31.23
2019-03-03T15:58:28.086Z,36.93
2019-03-03T16:00:06.337Z,40.20
2019-03-03T16:01:42.663Z,37.40
2019-03-03T16:03:18.752Z,35.37
2019-03-03T16:04:54.946Z,34.17
2019-03-03T16:06:31.072Z,35.53
2019-03-03T16:08:07.305Z,34.10
2019-03-03T16:09:43.319Z,32.87
2019-03-03T16:11:21.087Z,29.97
2019-03-03T16:12:57.319Z,30.70
2019-03-03T16:14:33.461Z,25.30
2019-03-03T16:16:09.896Z,29.93
2019-03-03T16:17:45.957Z,26.63
2019-03-03T16:19:22.095Z,26.03
2019-03-03T16:20:58.325Z,24.03
2019-03-03T16:22:34.620Z,27.07
2019-03-03T16:24:10.835Z,30.33
2019-03-03T16:25:46.849Z,33.40
2019-03-03T16:27:23.532Z,31.93
2019-03-03T16:28:59.398Z,42.73
2019-03-03T16:30:35.438Z,68.30
2019-03-03T16:32:11.560Z,72.20
2019-03-03T16:33:47.560Z,61.07
2019-03-03T16:35:23.701Z,41.17
2019-03-03T16:37:00.008Z,64.47
2019-03-03T16:40:25.105Z,28.17
2019-03-03T16:42:01.143Z,28.97
2019-03-03T16:43:37.136Z,27.50
2019-03-03T16:45:15.832Z,24.80
2019-03-03T16:46:51.701Z,26.70
2019-03-03T16:48:27.837Z,24.80
2019-03-03T16:50:04.143Z,25.00
2019-03-03T16:51:40.344Z,23.80
2019-03-03T16:53:16.270Z,27.27
2019-03-03T16:54:52.407Z,24.87
2019-03-03T16:56:28.471Z,25.30
2019-03-03T16:58:04.665Z,25.60
2019-03-03T16:59:40.652Z,26.80
2019-03-03T17:01:16.859Z,26.93
2019-03-03T17:02:53.410Z,28.30
2019-03-03T17:04:29.748Z,29.90
2019-03-03T17:06:06.246Z,29.83
2019-03-03T17:07:42.335Z,33.50
2019-03-03T17:09:18.374Z,32.13
2019-03-03T17:10:54.907Z,30.53
2019-03-03T17:12:30.935Z,32.10
2019-03-03T17:14:06.983Z,36.93
2019-03-03T17:15:42.886Z,59.63
2019-03-03T17:17:18.845Z,71.63
2019-03-03T17:18:55.107Z,68.90
2019-03-03T17:20:31.361Z,63.87
2019-03-03T17:22:07.541Z,63.67
2019-03-03T17:23:43.540Z,59.33
2019-03-03T17:25:27.925Z,55.13
2019-03-03T17:27:04.023Z,64.63
2019-03-03T17:28:40.260Z,65.07
2019-03-03T17:30:19.447Z,47.90
2019-03-03T17:31:55.647Z,40.83
2019-03-03T17:33:31.812Z,36.20
2019-03-03T17:35:08.453Z,40.60
2019-03-03T17:36:44.442Z,39.93
2019-03-03T17:38:20.463Z,34.30
2019-03-03T17:39:56.741Z,35.50
2019-03-03T17:41:34.170Z,36.70
2019-03-03T17:43:10.264Z,37.40
2019-03-03T17:44:46.322Z,39.57
2019-03-03T17:46:22.957Z,36.40
2019-03-03T17:47:59.043Z,37.17
2019-03-03T17:49:35.091Z,40.40
2019-03-03T17:51:11.151Z,37.43
2019-03-03T17:52:47.483Z,40.00
2019-03-03T17:54:23.545Z,49.10
2019-03-03T17:55:59.689Z,43.33
2019-03-03T17:57:35.762Z,44.60
2019-03-03T17:59:11.891Z,39.63
2019-03-03T18:00:48.899Z,38.27
2019-03-03T18:02:25.029Z,37.27
2019-03-03T18:04:01.099Z,35.77
2019-03-03T18:05:38.522Z,34.93
2019-03-03T18:07:14.571Z,39.47
2019-03-03T18:08:50.751Z,38.50
2019-03-03T18:10:26.931Z,40.80
2019-03-03T18:12:03.060Z,41.07
2019-03-03T18:13:39.108Z,47.47
2019-03-03T18:15:16.916Z,49.87
2019-03-03T18:16:52.958Z,60.67
2019-03-03T18:18:29.060Z,62.40
2019-03-03T18:20:08.238Z,46.87
2019-03-03T18:21:44.289Z,47.60
2019-03-03T18:23:20.520Z,44.90
2019-03-03T18:24:56.482Z,46.47
2019-03-03T18:26:32.528Z,42.07
2019-03-03T18:28:08.933Z,39.47
2019-03-03T18:29:44.953Z,37.93
2019-03-03T18:31:21.078Z,34.20
2019-03-03T18:32:57.170Z,33.37
2019-03-03T18:34:33.337Z,32.57
2019-03-03T18:36:09.558Z,35.63
2019-03-03T18:37:46.409Z,36.53
2019-03-03T18:39:22.672Z,36.53
2019-03-03T18:40:58.769Z,35.47
2019-03-03T18:42:35.098Z,37.10
2019-03-03T18:44:11.229Z,37.50
2019-03-03T18:45:47.369Z,35.20
2019-03-03T18:47:23.567Z,31.90
2019-03-03T18:48:59.640Z,35.33
2019-03-03T18:50:35.777Z,32.77
2019-03-03T18:52:11.905Z,32.87
2019-03-03T18:53:47.906Z,32.83
2019-03-03T18:55:24.015Z,30.23
2019-03-03T18:57:00.147Z,28.47
2019-03-03T18:58:36.315Z,27.50
2019-03-03T19:00:30.124Z,28.47
2019-03-03T19:02:06.356Z,27.83
2019-03-03T19:03:42.461Z,27.73
2019-03-03T19:05:18.776Z,30.23
2019-03-03T19:06:54.838Z,34.10
2019-03-03T19:08:31.039Z,34.50
2019-03-03T19:10:14.209Z,36.80
2019-03-03T19:11:50.339Z,27.13
2019-03-03T19:13:26.464Z,39.87
2019-03-03T19:15:02.605Z,35.30
2019-03-03T19:16:39.331Z,21.77
2019-03-03T19:18:15.933Z,20.03
2019-03-03T19:19:52.083Z,24.23
2019-03-03T19:21:28.145Z,27.50
2019-03-03T19:23:04.604Z,19.00
2019-03-03T19:24:40.734Z,19.33
2019-03-03T19:26:18.913Z,20.63
2019-03-03T19:27:54.834Z,20.03
2019-03-03T19:29:30.942Z,20.23
2019-03-03T19:31:07.144Z,18.77
2019-03-03T19:32:43.940Z,20.23
2019-03-03T19:34:20.736Z,16.90
2019-03-03T19:35:56.842Z,16.47
2019-03-03T19:37:33.042Z,18.90
2019-03-03T19:39:09.260Z,18.73
2019-03-03T19:40:45.451Z,19.03
2019-03-03T19:42:21.534Z,17.60
2019-03-03T19:43:57.672Z,16.70
2019-03-03T19:45:50.427Z,19.67
2019-03-03T19:47:26.644Z,20.50
2019-03-03T19:49:02.855Z,17.00
2019-03-03T19:50:39.247Z,16.83
2019-03-03T19:52:15.446Z,18.00
2019-03-03T19:53:51.576Z,18.93
2019-03-03T19:55:27.767Z,15.30
2019-03-03T19:57:03.969Z,16.37
2019-03-03T19:58:40.100Z,17.77
2019-03-03T20:00:35.616Z,14.47
2019-03-03T20:02:07.362Z,17.67
2019-03-03T20:03:43.509Z,14.97
2019-03-03T20:05:19.707Z,15.20
2019-03-03T20:06:55.907Z,14.17
2019-03-03T20:08:32.029Z,13.67
2019-03-03T20:10:12.645Z,15.30
2019-03-03T20:11:48.706Z,15.20
2019-03-03T20:13:24.744Z,13.67
2019-03-03T20:15:00.941Z,14.93
2019-03-03T20:16:36.972Z,15.00
2019-03-03T20:18:13.097Z,13.40
2019-03-03T20:19:49.100Z,14.33
2019-03-03T20:21:25.195Z,13.40
2019-03-03T20:23:02.712Z,14.67
2019-03-03T20:24:39.044Z,16.27
2019-03-03T20:26:15.437Z,14.80
2019-03-03T20:27:51.651Z,15.57
2019-03-03T20:29:27.739Z,15.13
2019-03-03T20:31:04.064Z,16.63
2019-03-03T20:32:40.298Z,17.93
2019-03-03T20:34:16.431Z,17.17
2019-03-03T20:35:52.487Z,17.53
2019-03-03T20:37:28.686Z,16.87
2019-03-03T20:39:06.930Z,16.83
2019-03-03T20:40:43.129Z,16.50
2019-03-03T20:42:19.302Z,16.87
2019-03-03T20:43:55.442Z,17.40
2019-03-03T20:45:33.271Z,17.70
2019-03-03T20:47:09.480Z,16.30
2019-03-03T20:48:45.591Z,14.97
2019-03-03T20:50:23.991Z,16.30
2019-03-03T20:51:59.955Z,15.17
2019-03-03T20:53:36.038Z,15.93
2019-03-03T20:55:15.898Z,15.27
2019-03-03T20:56:52.010Z,15.43
2019-03-03T20:58:28.070Z,16.17
2019-03-03T21:00:05.921Z,15.63
2019-03-03T21:01:41.979Z,15.43
2019-03-03T21:03:18.012Z,15.47
2019-03-03T21:04:54.446Z,15.80
2019-03-03T21:06:30.552Z,13.90
2019-03-03T21:08:06.493Z,12.33
2019-03-03T21:09:42.856Z,13.00
2019-03-03T21:11:19.086Z,11.67
2019-03-03T21:12:55.424Z,10.73
2019-03-03T21:14:31.456Z,10.83
2019-03-03T21:16:07.672Z,10.80
2019-03-03T21:17:43.973Z,11.27
2019-03-03T21:19:20.145Z,11.00
2019-03-03T21:20:56.195Z,10.00
2019-03-03T21:22:37.769Z,10.43
2019-03-03T21:24:13.938Z,9.60
2019-03-03T21:25:50.236Z,9.83
2019-03-03T21:27:26.383Z,9.97
2019-03-03T21:29:02.679Z,10.00
2019-03-03T21:30:38.817Z,10.13
2019-03-03T21:32:15.421Z,10.50
2019-03-03T21:33:53.319Z,9.40
2019-03-03T21:35:29.421Z,15.63